createdAt,value
2018-01-29T00:01:34.426Z,92.20
2018-01-29T00:04:02.763Z,92.20
2018-01-29T00:06:31.075Z,92.10
2018-01-29T00:08:59.397Z,92.10
2018-01-29T00:11:27.707Z,92.20
2018-01-29T00:13:56.039Z,92.10
2018-01-29T00:16:24.355Z,92.10
2018-01-29T00:18:52.688Z,92.20
2018-01-29T00:21:21.003Z,92.10
2018-01-29T00:23:49.346Z,92.00
2018-01-29T00:26:17.655Z,92.00
2018-01-29T00:28:45.990Z,91.90
2018-01-29T00:31:14.333Z,91.90
2018-01-29T00:33:42.658Z,91.90
2018-01-29T00:36:10.970Z,91.90
2018-01-29T00:38:39.303Z,91.80
2018-01-29T00:41:07.614Z,91.70
2018-01-29T00:43:35.954Z,91.70
2018-01-29T00:46:04.272Z,91.60
2018-01-29T00:48:32.607Z,91.70
2018-01-29T00:51:00.922Z,91.70
2018-01-29T00:53:29.258Z,91.70
2018-01-29T00:55:57.578Z,91.80
2018-01-29T00:58:25.920Z,91.70
2018-01-29T01:00:54.242Z,91.80
2018-01-29T01:03:22.574Z,91.60
2018-01-29T01:05:50.899Z,91.80
2018-01-29T01:08:19.254Z,91.70
2018-01-29T01:10:47.568Z,91.80
2018-01-29T01:13:15.887Z,91.80
2018-01-29T01:15:44.222Z,91.90
2018-01-29T01:18:12.534Z,92.00
2018-01-29T01:20:40.865Z,92.00
2018-01-29T01:23:09.178Z,92.00
2018-01-29T01:25:37.513Z,92.00
2018-01-29T01:28:05.834Z,92.40
2018-01-29T01:30:34.166Z,92.00
2018-01-29T01:33:02.486Z,92.00
2018-01-29T01:35:30.830Z,91.90
2018-01-29T01:37:59.143Z,91.90
2018-01-29T01:40:27.479Z,91.90
2018-01-29T01:42:55.791Z,91.80
2018-01-29T01:45:24.135Z,91.80
2018-01-29T01:47:52.459Z,91.80
2018-01-29T01:50:20.797Z,91.70
2018-01-29T01:52:49.118Z,91.70
2018-01-29T01:55:17.462Z,91.50
2018-01-29T01:57:45.781Z,91.60
2018-01-29T02:00:14.109Z,91.60
2018-01-29T02:02:42.428Z,91.50
2018-01-29T02:05:10.767Z,91.80
2018-01-29T02:07:39.098Z,91.80
2018-01-29T02:10:07.441Z,91.90
2018-01-29T02:12:35.768Z,91.90
2018-01-29T02:15:04.090Z,91.90
2018-01-29T02:17:32.436Z,92.00
2018-01-29T02:20:00.769Z,92.20
2018-01-29T02:22:29.995Z,92.30
2018-01-29T02:24:58.375Z,92.30
2018-01-29T02:27:26.706Z,92.30
2018-01-29T02:29:55.035Z,92.30
2018-01-29T02:32:23.354Z,92.30
2018-01-29T02:34:51.698Z,92.20
2018-01-29T02:37:20.019Z,92.20
2018-01-29T02:39:48.350Z,92.10
2018-01-29T02:42:16.671Z,92.10
2018-01-29T02:44:45.005Z,92.20
2018-01-29T02:47:13.315Z,92.40
2018-01-29T02:49:41.655Z,92.50
2018-01-29T02:52:09.960Z,92.30
2018-01-29T02:54:38.293Z,92.10
2018-01-29T02:57:06.615Z,91.90
2018-01-29T02:59:34.992Z,91.90
2018-01-29T03:02:03.306Z,91.80
2018-01-29T03:04:31.620Z,91.60
2018-01-29T03:06:59.980Z,91.60
2018-01-29T03:09:28.295Z,91.60
2018-01-29T03:11:56.631Z,91.60
2018-01-29T03:14:24.997Z,91.40
2018-01-29T03:16:53.309Z,91.50
2018-01-29T03:19:21.621Z,91.50
2018-01-29T03:21:49.952Z,91.50
2018-01-29T03:24:18.276Z,91.50
2018-01-29T03:26:46.606Z,91.50
2018-01-29T03:29:14.914Z,91.60
2018-01-29T03:31:43.268Z,91.40
2018-01-29T03:34:11.596Z,91.30
2018-01-29T03:36:39.947Z,91.40
2018-01-29T03:39:08.272Z,91.40
2018-01-29T03:41:36.615Z,91.40
2018-01-29T03:44:04.931Z,91.40
2018-01-29T03:46:33.306Z,91.30
2018-01-29T03:49:01.665Z,91.20
2018-01-29T03:51:30.007Z,91.30
2018-01-29T03:53:58.745Z,91.30
2018-01-29T03:56:27.078Z,91.30
2018-01-29T03:58:55.400Z,91.30
2018-01-29T04:01:23.747Z,91.40
2018-01-29T04:03:52.069Z,91.10
2018-01-29T04:06:20.410Z,91.20
2018-01-29T04:08:48.724Z,91.20
2018-01-29T04:11:17.062Z,91.20
2018-01-29T04:13:45.379Z,91.10
2018-01-29T04:16:13.716Z,91.20
2018-01-29T04:18:42.026Z,91.20
2018-01-29T04:21:10.362Z,91.20
2018-01-29T04:23:38.677Z,91.10
2018-01-29T04:26:07.012Z,91.00
2018-01-29T04:28:35.331Z,91.00
2018-01-29T04:31:03.664Z,91.00
2018-01-29T04:33:31.976Z,91.00
2018-01-29T04:36:00.312Z,91.00
2018-01-29T04:38:28.625Z,90.80
2018-01-29T04:40:57.487Z,90.80
2018-01-29T04:43:25.826Z,90.80
2018-01-29T04:45:54.644Z,90.80
2018-01-29T04:48:22.970Z,90.70
2018-01-29T04:50:51.326Z,90.70
2018-01-29T04:53:19.646Z,90.70
2018-01-29T04:55:47.966Z,90.60
2018-01-29T04:58:16.302Z,90.70
2018-01-29T05:00:44.620Z,90.70
2018-01-29T05:03:12.958Z,90.60
2018-01-29T05:05:41.275Z,90.50
2018-01-29T05:08:09.610Z,90.40
2018-01-29T05:10:37.923Z,90.40
2018-01-29T05:13:06.268Z,90.30
2018-01-29T05:15:34.587Z,90.20
2018-01-29T05:18:02.914Z,90.30
2018-01-29T05:20:31.230Z,90.30
2018-01-29T05:22:59.562Z,90.00
2018-01-29T05:25:27.910Z,90.00
2018-01-29T05:27:56.243Z,90.00
2018-01-29T05:30:24.551Z,90.00
2018-01-29T05:32:52.887Z,90.10
2018-01-29T05:35:27.933Z,90.10
2018-01-29T05:37:56.774Z,90.10
2018-01-29T05:40:25.090Z,90.00
2018-01-29T05:42:53.435Z,90.00
2018-01-29T05:45:21.750Z,90.00
2018-01-29T05:47:50.082Z,89.70
2018-01-29T05:50:18.393Z,89.90
2018-01-29T05:52:46.726Z,89.90
2018-01-29T05:55:15.060Z,89.90
2018-01-29T05:57:43.430Z,89.80
2018-01-29T06:00:11.751Z,89.70
2018-01-29T06:02:40.091Z,90.00
2018-01-29T06:05:08.411Z,90.00
2018-01-29T06:07:36.742Z,90.00
2018-01-29T06:10:05.053Z,90.00
2018-01-29T06:12:33.391Z,89.80
2018-01-29T06:15:01.709Z,89.80
2018-01-29T06:17:30.043Z,89.50
2018-01-29T06:19:58.354Z,89.40
2018-01-29T06:22:26.691Z,89.20
2018-01-29T06:24:54.997Z,89.60
2018-01-29T06:27:23.337Z,89.80
2018-01-29T06:29:51.653Z,89.90
2018-01-29T06:32:19.996Z,89.90
2018-01-29T06:34:48.305Z,90.00
2018-01-29T06:37:16.650Z,90.00
2018-01-29T06:39:44.962Z,90.40
2018-01-29T06:42:13.297Z,90.00
2018-01-29T06:44:41.618Z,89.90
2018-01-29T06:47:09.941Z,89.60
2018-01-29T06:49:38.289Z,89.40
2018-01-29T06:52:06.619Z,89.50
2018-01-29T06:54:34.964Z,89.40
2018-01-29T06:57:03.301Z,89.50
2018-01-29T06:59:31.645Z,89.50
2018-01-29T07:01:59.966Z,89.50
2018-01-29T07:04:28.299Z,89.50
2018-01-29T07:06:56.626Z,89.50
2018-01-29T07:09:24.979Z,89.00
2018-01-29T07:11:53.298Z,89.00
2018-01-29T07:14:21.667Z,88.80
2018-01-29T07:16:49.984Z,89.00
2018-01-29T07:19:18.321Z,89.00
2018-01-29T07:21:46.643Z,88.90
2018-01-29T07:24:14.978Z,88.80
2018-01-29T07:26:43.307Z,88.10
2018-01-29T07:29:11.655Z,88.40
2018-01-29T07:31:39.979Z,88.10
2018-01-29T07:34:08.347Z,87.60
2018-01-29T07:36:36.661Z,87.80
2018-01-29T07:39:04.998Z,87.40
2018-01-29T07:41:33.316Z,87.20
2018-01-29T07:44:01.659Z,87.10
2018-01-29T07:46:29.982Z,87.00
2018-01-29T07:48:58.325Z,87.10
2018-01-29T07:51:26.777Z,87.00
2018-01-29T07:53:55.190Z,86.70
2018-01-29T07:56:23.520Z,86.60
2018-01-29T07:58:51.864Z,86.60
2018-01-29T08:01:20.187Z,86.20
2018-01-29T08:03:48.554Z,86.40
2018-01-29T08:06:16.871Z,86.20
2018-01-29T08:08:45.229Z,86.50
2018-01-29T08:11:13.551Z,86.50
2018-01-29T08:13:41.897Z,86.00
2018-01-29T08:16:10.224Z,85.60
2018-01-29T08:18:38.539Z,85.80
2018-01-29T08:21:06.880Z,86.10
2018-01-29T08:23:35.204Z,85.00
2018-01-29T08:26:03.547Z,84.80
2018-01-29T08:28:31.871Z,84.90
2018-01-29T08:31:00.207Z,84.70
2018-01-29T08:33:28.538Z,84.70
2018-01-29T08:35:56.895Z,84.30
2018-01-29T08:38:25.210Z,84.10
2018-01-29T08:40:53.547Z,83.70
2018-01-29T08:43:21.872Z,83.90
2018-01-29T08:45:50.233Z,84.00
2018-01-29T08:48:18.559Z,84.20
2018-01-29T08:50:46.897Z,83.90
2018-01-29T08:53:15.226Z,83.80
2018-01-29T08:55:43.571Z,83.30
2018-01-29T08:58:11.919Z,83.10
2018-01-29T09:00:40.297Z,83.30
2018-01-29T09:03:08.611Z,82.40
2018-01-29T09:05:36.953Z,82.50
2018-01-29T09:08:05.279Z,82.60
2018-01-29T09:10:33.636Z,82.70
2018-01-29T09:13:01.960Z,82.60
2018-01-29T09:15:30.312Z,81.90
2018-01-29T09:17:58.642Z,81.60
2018-01-29T09:20:26.991Z,81.10
2018-01-29T09:22:55.321Z,80.50
2018-01-29T09:25:23.658Z,79.90
2018-01-29T09:27:51.975Z,81.10
2018-01-29T09:30:20.315Z,79.60
2018-01-29T09:32:48.651Z,79.60
2018-01-29T09:35:16.984Z,79.70
2018-01-29T09:37:45.329Z,79.40
2018-01-29T09:40:13.663Z,78.30
2018-01-29T09:42:42.016Z,77.40
2018-01-29T09:45:10.330Z,77.10
2018-01-29T09:47:38.692Z,76.30
2018-01-29T09:50:07.021Z,75.90
2018-01-29T09:52:35.403Z,75.30
2018-01-29T09:55:03.727Z,76.10
2018-01-29T09:57:32.071Z,75.70
2018-01-29T10:00:00.399Z,76.00
2018-01-29T10:02:28.750Z,75.60
2018-01-29T10:04:57.076Z,75.90
2018-01-29T10:07:25.437Z,76.00
2018-01-29T10:09:53.794Z,75.70
2018-01-29T10:12:22.140Z,75.40
2018-01-29T10:14:50.466Z,75.30
2018-01-29T10:17:18.821Z,74.60
2018-01-29T10:19:47.134Z,74.90
2018-01-29T10:22:15.467Z,75.60
2018-01-29T10:24:43.789Z,75.30
2018-01-29T10:27:12.131Z,75.30
2018-01-29T10:29:40.446Z,75.00
2018-01-29T10:32:08.776Z,75.20
2018-01-29T10:34:37.079Z,74.80
2018-01-29T10:37:05.459Z,75.00
2018-01-29T10:39:33.752Z,73.80
2018-01-29T10:42:02.099Z,73.20
2018-01-29T10:44:30.406Z,74.00
2018-01-29T10:46:58.735Z,74.00
2018-01-29T10:49:27.642Z,74.00
2018-01-29T10:51:55.983Z,74.40
2018-01-29T10:54:24.295Z,74.40
2018-01-29T10:56:52.629Z,73.30
2018-01-29T10:59:20.947Z,73.90
2018-01-29T11:01:55.015Z,73.40
2018-01-29T11:04:23.326Z,73.00
2018-01-29T11:06:51.664Z,72.30
2018-01-29T11:09:19.979Z,72.10
2018-01-29T11:11:48.344Z,72.70
2018-01-29T11:14:16.660Z,72.70
2018-01-29T11:16:45.006Z,71.90
2018-01-29T11:19:13.326Z,70.90
2018-01-29T11:21:41.775Z,70.50
2018-01-29T11:24:10.087Z,69.40
2018-01-29T11:26:38.446Z,69.30
2018-01-29T11:29:06.767Z,67.40
2018-01-29T11:31:35.089Z,68.00
2018-01-29T11:34:03.592Z,68.20
2018-01-29T11:36:31.913Z,68.30
2018-01-29T11:39:00.250Z,68.20
2018-01-29T11:41:28.568Z,69.20
2018-01-29T11:43:57.205Z,69.10
2018-01-29T11:46:25.527Z,68.50
2018-01-29T11:48:53.854Z,69.40
2018-01-29T11:51:22.162Z,69.20
2018-01-29T11:53:50.486Z,69.60
2018-01-29T11:56:18.794Z,69.90
2018-01-29T11:58:47.131Z,69.60
2018-01-29T12:01:15.451Z,68.80
2018-01-29T12:03:43.778Z,68.70
2018-01-29T12:06:12.087Z,69.90
2018-01-29T12:08:40.421Z,69.40
2018-01-29T12:11:08.732Z,70.00
2018-01-29T12:13:37.188Z,70.30
2018-01-29T12:16:05.403Z,70.50
2018-01-29T12:18:33.736Z,70.40
2018-01-29T12:21:02.047Z,70.90
2018-01-29T12:23:30.388Z,71.60
2018-01-29T12:25:58.702Z,70.90
2018-01-29T12:28:26.275Z,70.90
2018-01-29T12:30:54.591Z,70.90
2018-01-29T12:33:22.942Z,71.50
2018-01-29T12:35:51.256Z,72.10
2018-01-29T12:38:19.599Z,72.10
2018-01-29T12:40:47.926Z,72.20
2018-01-29T12:43:16.274Z,71.70
2018-01-29T12:45:44.594Z,72.20
2018-01-29T12:48:12.931Z,72.40
2018-01-29T12:50:41.247Z,73.20
2018-01-29T12:53:09.583Z,73.70
2018-01-29T12:55:37.919Z,73.40
2018-01-29T12:58:06.264Z,74.10
2018-01-29T13:00:34.599Z,74.10
2018-01-29T13:03:02.933Z,74.30
2018-01-29T13:05:31.272Z,73.80
2018-01-29T13:07:59.624Z,73.60
2018-01-29T13:10:27.931Z,74.90
2018-01-29T13:12:56.263Z,75.70
2018-01-29T13:15:24.590Z,76.50
2018-01-29T13:17:52.912Z,76.50
2018-01-29T13:20:21.244Z,76.30
2018-01-29T13:22:49.632Z,76.70
2018-01-29T13:25:17.968Z,77.00
2018-01-29T13:27:46.278Z,76.70
2018-01-29T13:30:14.611Z,76.60
2018-01-29T13:32:42.919Z,76.50
2018-01-29T13:35:11.257Z,76.60
2018-01-29T13:37:39.578Z,76.90
2018-01-29T13:40:07.919Z,77.40
2018-01-29T13:42:36.234Z,77.20
2018-01-29T13:45:04.596Z,77.70
2018-01-29T13:47:32.929Z,77.70
2018-01-29T13:50:01.282Z,77.70
2018-01-29T13:52:28.831Z,77.60
2018-01-29T13:54:57.170Z,77.40
2018-01-29T13:57:25.495Z,77.20
2018-01-29T13:59:53.832Z,77.90
2018-01-29T14:02:22.151Z,77.80
2018-01-29T14:04:50.482Z,78.20
2018-01-29T14:07:18.792Z,78.20
2018-01-29T14:09:47.116Z,78.10
2018-01-29T14:12:15.428Z,78.20
2018-01-29T14:14:43.767Z,78.60
2018-01-29T14:17:12.074Z,77.60
2018-01-29T14:19:40.417Z,78.10
2018-01-29T14:22:08.735Z,78.10
2018-01-29T14:24:37.071Z,78.30
2018-01-29T14:27:05.391Z,77.20
2018-01-29T14:29:33.726Z,77.50
2018-01-29T14:32:02.071Z,77.20
2018-01-29T14:34:30.401Z,77.20
2018-01-29T14:36:58.710Z,77.40
2018-01-29T14:39:27.050Z,77.20
2018-01-29T14:41:55.386Z,76.30
2018-01-29T14:44:23.700Z,76.70
2018-01-29T14:46:52.053Z,77.30
2018-01-29T14:49:20.370Z,77.50
2018-01-29T14:51:48.723Z,78.00
2018-01-29T14:54:17.054Z,77.20
2018-01-29T14:56:45.388Z,77.40
2018-01-29T14:59:13.708Z,77.90
2018-01-29T15:01:42.043Z,78.00
2018-01-29T15:04:10.365Z,77.80
2018-01-29T15:06:38.708Z,78.10
2018-01-29T15:09:07.094Z,76.90
2018-01-29T15:11:35.442Z,77.10
2018-01-29T15:14:03.780Z,77.30
2018-01-29T15:16:32.117Z,77.10
2018-01-29T15:19:00.445Z,77.40
2018-01-29T15:21:28.791Z,77.20
2018-01-29T15:23:57.103Z,77.10
2018-01-29T15:26:25.432Z,77.50
2018-01-29T15:28:53.751Z,77.80
2018-01-29T15:31:22.089Z,77.30
2018-01-29T15:33:50.411Z,77.80
2018-01-29T15:36:18.750Z,78.30
2018-01-29T15:38:47.056Z,78.70
2018-01-29T15:41:15.428Z,79.30
2018-01-29T15:43:43.730Z,80.00
2018-01-29T15:46:12.073Z,80.30
2018-01-29T15:48:40.398Z,80.40
2018-01-29T15:51:08.736Z,80.90
2018-01-29T15:53:37.059Z,81.30
2018-01-29T15:56:05.396Z,81.20
2018-01-29T15:58:33.710Z,81.70
2018-01-29T16:01:02.050Z,82.00
2018-01-29T16:03:30.366Z,81.30
2018-01-29T16:05:58.739Z,81.60
2018-01-29T16:08:27.078Z,81.70
2018-01-29T16:10:55.445Z,81.60
2018-01-29T16:13:23.760Z,81.70
2018-01-29T16:15:52.107Z,81.30
2018-01-29T16:18:20.426Z,81.60
2018-01-29T16:20:48.768Z,82.00
2018-01-29T16:23:17.118Z,82.40
2018-01-29T16:25:45.467Z,82.80
2018-01-29T16:28:13.805Z,83.20
2018-01-29T16:30:42.135Z,83.70
2018-01-29T16:33:10.495Z,83.50
2018-01-29T16:35:38.841Z,83.90
2018-01-29T16:38:07.186Z,84.10
2018-01-29T16:40:35.508Z,84.00
2018-01-29T16:43:03.839Z,84.30
2018-01-29T16:45:32.178Z,84.30
2018-01-29T16:48:00.525Z,84.70
2018-01-29T16:50:28.856Z,85.40
2018-01-29T16:52:57.696Z,86.00
2018-01-29T16:55:26.013Z,86.60
2018-01-29T16:57:54.351Z,86.90
2018-01-29T17:00:22.662Z,87.70
2018-01-29T17:02:50.998Z,88.20
2018-01-29T17:05:19.311Z,88.60
2018-01-29T17:07:47.666Z,89.20
2018-01-29T17:10:15.991Z,89.80
2018-01-29T17:12:44.356Z,90.00
2018-01-29T17:15:12.674Z,90.20
2018-01-29T17:17:41.010Z,90.30
2018-01-29T17:20:09.322Z,90.60
2018-01-29T17:22:37.667Z,90.50
2018-01-29T17:25:06.003Z,90.60
2018-01-29T17:27:34.347Z,90.80
2018-01-29T17:30:03.966Z,91.00
2018-01-29T17:32:33.718Z,91.00
2018-01-29T17:35:02.265Z,91.00
2018-01-29T17:37:31.435Z,91.30
2018-01-29T17:39:59.821Z,91.40
2018-01-29T17:42:28.163Z,91.50
2018-01-29T17:44:58.611Z,91.70
2018-01-29T17:47:27.708Z,91.80
2018-01-29T17:49:57.650Z,91.80
2018-01-29T17:52:25.989Z,91.90
2018-01-29T17:54:54.298Z,92.00
2018-01-29T17:57:22.722Z,91.80
2018-01-29T17:59:51.037Z,91.90
2018-01-29T18:02:19.374Z,91.90
2018-01-29T18:04:47.698Z,91.90
2018-01-29T18:07:16.032Z,91.90
2018-01-29T18:09:44.351Z,92.10
2018-01-29T18:12:12.671Z,92.20
2018-01-29T18:14:41.006Z,92.20
2018-01-29T18:17:09.321Z,92.10
2018-01-29T18:19:37.662Z,92.20
2018-01-29T18:22:05.986Z,92.60
2018-01-29T18:24:34.320Z,92.30
2018-01-29T18:27:02.639Z,92.30
2018-01-29T18:29:30.974Z,92.40
2018-01-29T18:31:59.354Z,92.40
2018-01-29T18:34:27.715Z,92.50
2018-01-29T18:36:56.063Z,92.50
2018-01-29T18:39:24.500Z,92.60
2018-01-29T18:41:52.871Z,92.70
2018-01-29T18:44:21.428Z,92.50
2018-01-29T18:46:49.750Z,92.60
2018-01-29T18:49:18.095Z,92.80
2018-01-29T18:51:46.411Z,92.70
2018-01-29T18:54:14.739Z,92.80
2018-01-29T18:56:43.062Z,92.90
2018-01-29T18:59:11.419Z,92.90
2018-01-29T19:01:39.732Z,92.90
2018-01-29T19:04:08.076Z,92.80
2018-01-29T19:06:36.386Z,92.90
2018-01-29T19:09:04.738Z,93.10
2018-01-29T19:11:33.064Z,93.10
2018-01-29T19:14:01.410Z,93.20
2018-01-29T19:16:29.726Z,93.20
2018-01-29T19:18:58.068Z,93.20
2018-01-29T19:21:26.386Z,93.10
2018-01-29T19:23:54.727Z,93.10
2018-01-29T19:26:23.187Z,93.20
2018-01-29T19:28:51.562Z,93.30
2018-01-29T19:31:20.008Z,93.40
2018-01-29T19:33:48.346Z,93.30
2018-01-29T19:36:16.657Z,93.40
2018-01-29T19:38:45.039Z,93.40
2018-01-29T19:41:13.380Z,93.40
2018-01-29T19:43:41.733Z,93.50
2018-01-29T19:46:10.080Z,93.50
2018-01-29T19:48:38.450Z,93.50
2018-01-29T19:51:06.792Z,93.50
2018-01-29T19:53:35.113Z,93.50
2018-01-29T19:56:03.456Z,93.50
2018-01-29T19:58:31.904Z,93.50
2018-01-29T20:01:00.362Z,93.50
2018-01-29T20:03:28.690Z,93.40
2018-01-29T20:05:57.031Z,93.50
2018-01-29T20:08:25.348Z,93.50
2018-01-29T20:10:53.682Z,93.40
2018-01-29T20:13:21.243Z,93.40
2018-01-29T20:15:49.583Z,93.40
2018-01-29T20:18:17.907Z,93.40
2018-01-29T20:20:46.245Z,93.40
2018-01-29T20:23:14.642Z,93.30
2018-01-29T20:25:42.981Z,93.30
2018-01-29T20:28:11.325Z,93.30
2018-01-29T20:30:39.662Z,93.30
2018-01-29T20:33:07.970Z,93.30
2018-01-29T20:35:36.312Z,93.40
2018-01-29T20:38:04.657Z,93.30
2018-01-29T20:40:33.041Z,93.30
2018-01-29T20:43:01.361Z,93.20
2018-01-29T20:45:29.689Z,92.50
2018-01-29T20:47:58.015Z,92.30
2018-01-29T20:50:26.346Z,92.50
2018-01-29T20:52:54.661Z,92.00
2018-01-29T20:55:23.045Z,91.80
2018-01-29T20:57:51.540Z,91.80
2018-01-29T21:00:19.879Z,91.80
2018-01-29T21:02:48.197Z,91.60
2018-01-29T21:05:16.580Z,91.50
2018-01-29T21:07:44.899Z,91.40
2018-01-29T21:10:13.234Z,91.10
2018-01-29T21:12:41.546Z,90.70
2018-01-29T21:15:09.879Z,90.90
2018-01-29T21:17:38.223Z,90.70
2018-01-29T21:20:06.567Z,90.60
2018-01-29T21:22:34.923Z,90.70
2018-01-29T21:25:03.227Z,90.80
2018-01-29T21:27:31.546Z,90.80
2018-01-29T21:29:59.866Z,91.10
2018-01-29T21:32:28.202Z,90.80
2018-01-29T21:34:56.518Z,90.60
2018-01-29T21:37:24.852Z,90.40
2018-01-29T21:39:53.174Z,90.20
2018-01-29T21:42:21.506Z,90.20
2018-01-29T21:44:49.834Z,89.80
2018-01-29T21:47:18.169Z,89.30
2018-01-29T21:49:46.484Z,89.00
2018-01-29T21:52:14.819Z,87.90
2018-01-29T21:54:43.127Z,88.30
2018-01-29T21:57:11.467Z,88.40
2018-01-29T21:59:39.789Z,87.60
2018-01-29T22:02:08.124Z,87.30
2018-01-29T22:04:36.438Z,87.20
2018-01-29T22:07:04.775Z,87.90
2018-01-29T22:09:33.087Z,87.50
2018-01-29T22:12:01.428Z,87.60
2018-01-29T22:14:29.755Z,87.70
2018-01-29T22:16:58.101Z,87.50
2018-01-29T22:19:26.429Z,87.50
2018-01-29T22:21:54.773Z,87.70
2018-01-29T22:24:23.097Z,87.60
2018-01-29T22:26:51.425Z,87.30
2018-01-29T22:29:19.738Z,86.90
2018-01-29T22:31:48.078Z,87.00
2018-01-29T22:34:16.393Z,87.00
2018-01-29T22:36:44.751Z,87.30
2018-01-29T22:39:13.062Z,87.60
2018-01-29T22:41:41.394Z,87.80
2018-01-29T22:44:09.698Z,87.20
2018-01-29T22:46:38.083Z,86.70
2018-01-29T22:49:06.428Z,86.80
2018-01-29T22:51:34.758Z,86.40
2018-01-29T22:54:03.063Z,86.70
2018-01-29T22:56:31.398Z,86.60
2018-01-29T22:58:59.707Z,86.40
2018-01-29T23:01:28.030Z,86.60
2018-01-29T23:03:56.344Z,86.00
2018-01-29T23:06:24.708Z,86.00
2018-01-29T23:08:53.069Z,86.10
2018-01-29T23:11:21.404Z,86.30
2018-01-29T23:13:49.715Z,86.60
2018-01-29T23:16:18.040Z,87.00
2018-01-29T23:18:46.377Z,87.30
2018-01-29T23:21:14.683Z,87.50
2018-01-29T23:23:43.014Z,87.50
2018-01-29T23:26:11.329Z,87.30
2018-01-29T23:28:39.666Z,87.60
2018-01-29T23:31:07.979Z,87.90
2018-01-29T23:33:36.319Z,88.10
2018-01-29T23:36:04.631Z,88.50
2018-01-29T23:38:32.963Z,88.90
2018-01-29T23:41:01.276Z,89.20
2018-01-29T23:43:28.839Z,89.20
2018-01-29T23:45:57.141Z,89.60
2018-01-29T23:48:25.467Z,89.90
2018-01-29T23:50:53.779Z,90.00
2018-01-29T23:53:22.106Z,90.10
2018-01-29T23:55:50.407Z,90.20
2018-01-29T23:58:18.735Z,90.20
